Portada
METAR-TAF:

METAR-TAF

Aeroports :

Kota Bharu, Malàisia

latitud: 06-10N, longitud: 102-17E, altitud: 5 m

Observació

L'informe es va fer fa 24 minuts, a les 08:00 UTC
Vent 7 kt del Est/Nord-Est, variant entre Nord/Nord-Est i Est/Sud-Est
Temperatura 32°C
Humitat 67%
Pressió 1008 hPa
Visibilitat 10 km o més
Escasses núvols a una alçada de 1800 ft

METAR: WMKC 150800Z 06007KT 020V120 9999 FEW018 32/25 Q1008

Hora: 16:24 (08:24 UTC)

Pronòstic

L'informe es va fer fa 3 hores i 24 minuts, a les 05:00 UTC
Pronòstic vàlid del 15 a les 06 UTC al 16 a les 06 UTC
Vent 5 kt del Sud-Est
Visibilitat 10 km o més
Escasses núvols a una alçada de 1800 ft
Evolucionant progressivament
l' 15 a les 12 UTC al 15 a les 13 UTC
Vent 3 kt amb direcció variable
Escasses núvols a una alçada de 2000 ft

TAF: WMKC 150500Z 1506/1606 14005KT 9999 FEW018 BECMG 1512/1513 VRB03KT FEW020

Observacions i pronòstics meteorològics de més de 4000 aeroports (METAR i TAF).

Les estacions disponibles són els punts grocs i vermells al mapa.

Posi el ratolí al punt desitjat per veure el nom de l'estació.

Feu clic per veure les observacions i els pronòstics meteorològics.

Per canviar el mapa: feu clic els botons verds amb una creu de color negre per apropar; al botó verd amb un guió per allunyar la imatge; o en les fletxes verdes per a mapes adjacents.


METAR-TAF: